Lowlands, Sint Maarten

1:46 PM AST on May 28, 2017 (GMT -0400)
Saint Martin | | Change Station

Elev 111 ft 18.07 °N, 63.14 °W | Updated 1 second ago

Partly Cloudy
Partly Cloudy
90.5 °F
Feels Like 97 °F
N
6.9
Wind Variable Wind from SSW
Gusts 7.2 mph

Today
High -- | Low -- °F
--% Chance of Precip.
Yesterday
High -- | Low -- °F
Precip. -- in
Pressure 30.04 in
Visibility 6.2 miles
Clouds Few 1800 ft
Heat Index 97 °F
Dew Point 71 °F
Humidity 53%
Rainfall 0.00 in
Snow Depth Not available.
5:36 AM 6:43 PM
Waxing Crescent, 12% visible
METAR TNCM 281700Z 13011KT 9999 FEW018 FEW///TCU 29/24 Q1017 A3004 NOSIG RMK DSNT SHWRS NW/SSE THRU SE LGT HZ SE TCU SE/NW
Pressure 30.04 in
Visibility 6.2 miles
Clouds Few 1800 ft
Heat Index 97 °F
Dew Point 71 °F
Humidity 53%
Rainfall 0.00 in
Snow Depth Not available.
5:36 AM 6:43 PM
Waxing Crescent, 12% visible
METAR TNCM 281700Z 13011KT 9999 FEW018 FEW///TCU 29/24 Q1017 A3004 NOSIG RMK DSNT SHWRS NW/SSE THRU SE LGT HZ SE TCU SE/NW

Get Severe Weather Alerts

Thanks for signing up!

Be on the lookout for a verification email in your inbox.

You'll start receiving the daily forecast at 6 AM.

×

10-Day Weather Forecast

No radar image for this location.
×

Almanac

Astronomy

May. 28, 2017 Rise Set
Actual Time
Civil Twilight
Nautical Twilight
Astronomical Twilight
Moon
Length of Visible Light
Length of Day
Tomorrow will be .
, % of the Moon is Illuminated

Today's Extremes

Country Highs Country Lows

Community

WunderPhotos

Category 6

Welcome to Category 6. This is the collective home for Weather Underground's featured writeups by Dr. Jeff Masters (right), Bob Henson (left), Chris Burt, and other regular contributors.

Nearby

Air Quality

  Air Quality AQ Index Pollutant
Not available.

Snow Depth

Station Depth Elevation

Earthquake Activity

City Distance Mag. Time & Date
Minimum magnitude displayed is 2.5.

Coastal Water Temperatures

Place Temperature

Stations

Nearby Weather Stations

Station Location Temp. Windchill Dew Point Humidity Wind Precip. Elev Updated Type